Time;durP1;ratioP1;P1;durP2;ratioP2;P2;SDS_P1;SDS_P2;PMS_P1;PMS_P2;Temp;Humidity;BMP_temperature;BMP_pressure;BME280_temperature;BME280_humidity;BME280_pressure;Samples;Min_cycle;Max_cycle;Signal;HPM_P1;HPM_P2
2021/08/22 00:00:41;;;;;;;;;;;;;;;18.78;77.10;96659.75;5093708;28;19966;-76
2021/08/22 00:03:07;;;;;;;;;;;;;;;18.79;77.06;96665.84;5093359;28;20379;-76
2021/08/22 00:05:33;;;;;;;;;;;;;;;18.79;77.65;96664.03;5093468;28;19966;-76
2021/08/22 00:07:59;;;;;;;;;;;;;;;18.79;77.32;96653.41;5093094;28;20056;-76
2021/08/22 00:10:25;;;;;;;;;;;;;;;18.79;76.64;96727.78;5093534;28;19967;-76
2021/08/22 00:12:51;;;;;;;;;;;;;;;18.73;79.60;96749.25;5093692;28;20423;-76
2021/08/22 00:15:17;;;;;;;;;;;;;;;18.63;79.90;96731.44;5093294;28;19962;-74
2021/08/22 00:17:43;;;;;;;;;;;;;;;18.50;79.03;96689.44;5092092;28;19966;-71
2021/08/22 00:20:09;;;;;;;;;;;;;;;18.30;81.66;96709.56;5093383;28;20360;-73
2021/08/22 00:22:35;;;;;;;;;;;;;;;18.03;82.75;96707.06;5093433;28;19961;-74
2021/08/22 00:25:01;;;;;;;;;;;;;;;17.82;83.33;96728.19;5093727;28;20328;-75
2021/08/22 00:27:27;;;;;;;;;;;;;;;17.72;84.10;96728.09;5093814;28;19960;-75
2021/08/22 00:29:53;;;;;;;;;;;;;;;17.58;81.76;96726.97;5094314;28;19968;-75
2021/08/22 00:32:19;;;;;;;;;;;;;;;17.47;81.41;96717.34;5097486;28;20411;-75
2021/08/22 00:34:46;;;;;;;;;;;;;;;17.36;81.05;96717.25;5096899;28;20004;-76
2021/08/22 00:37:12;;;;;;;;;;;;;;;17.33;83.16;96715.13;5096944;28;19983;-76
2021/08/22 00:39:38;;;;;;;;;;;;;;;17.30;82.33;96706.88;5096245;28;20039;-77
2021/08/22 00:42:04;;;;;;;;;;;;;;;17.21;83.08;96704.69;5096885;28;20387;-76
2021/08/22 00:44:29;;;;;;;;;;;;;;;17.15;80.74;96696.97;5096841;28;19978;-76
2021/08/22 00:46:56;;;;;;;;;;;;;;;17.05;84.89;96687.09;5096891;28;19950;-76
2021/08/22 00:49:22;;;;;;;;;;;;;;;17.03;84.26;96682.06;5096122;28;19985;-76
2021/08/22 00:51:48;;;;;;;;;;;;;;;17.07;83.88;96670.94;5097041;28;19962;-76
2021/08/22 00:54:14;;;;;;;;;;;;;;;17.12;84.30;96670.97;5096747;28;20324;-76
2021/08/22 00:56:40;;;;;;;;;;;;;;;17.17;83.52;96673.66;5096762;28;19995;-76
2021/08/22 00:59:10;;;;;;;;;;;;;;;17.23;84.17;96673.44;5096673;28;20348;-76
2021/08/22 01:01:36;;;;;;;;;;;;;;;17.30;83.53;96673.22;5096587;28;19961;-76
2021/08/22 01:04:08;;;;;;;;;;;;;;;17.33;83.39;96664.75;5096600;28;19959;-76
2021/08/22 01:06:37;;;;;;;;;;;;;;;17.37;83.39;96657.91;5096768;28;20316;-76
2021/08/22 01:09:07;;;;;;;;;;;;;;;17.39;83.05;96655.78;5096585;28;19979;-76
2021/08/22 01:11:35;;;;;;;;;;;;;;;17.40;82.51;96651.28;5096431;28;20336;-76
2021/08/22 01:14:03;;;;;;;;;;;;;;;17.40;81.25;96648.63;5096010;28;19953;-78
2021/08/22 01:16:32;;;;;;;;;;;;;;;17.40;81.62;96627.41;5087359;28;19958;-76
2021/08/22 01:18:59;;;;;;;;;;;;;;;17.40;82.83;96649.41;5096245;28;19969;-76
2021/08/22 01:21:25;;;;;;;;;;;;;;;17.42;82.12;96641.22;5096253;28;19948;-76
2021/08/22 01:24:03;;;;;;;;;;;;;;;17.43;83.70;96637.53;5096209;28;19960;-76
2021/08/22 01:26:31;;;;;;;;;;;;;;;17.39;82.15;96626.63;5095217;28;19958;-76
2021/08/22 01:29:01;;;;;;;;;;;;;;;17.38;82.86;96617.06;5095952;28;20026;-77
2021/08/22 01:31:36;;;;;;;;;;;;;;;17.39;83.21;96629.28;5119270;27;19991;-76
2021/08/22 01:34:02;;;;;;;;;;;;;;;17.39;82.34;96615.22;5080611;28;19948;-76
2021/08/22 01:36:29;;;;;;;;;;;;;;;17.38;83.15;96629.53;5096202;28;20047;-76
2021/08/22 01:38:55;;;;;;;;;;;;;;;17.38;82.63;96629.53;5095768;28;19973;-76
2021/08/22 01:41:25;;;;;;;;;;;;;;;17.36;82.17;96615.72;5095287;28;19963;-76
2021/08/22 01:43:53;;;;;;;;;;;;;;;17.38;81.96;96618.91;5095863;28;20345;-76
2021/08/22 01:46:27;;;;;;;;;;;;;;;17.36;82.66;96605.13;5095916;28;19962;-76
2021/08/22 01:48:54;;;;;;;;;;;;;;;17.35;82.50;96611.50;5095837;28;19947;-76
2021/08/22 01:51:20;;;;;;;;;;;;;;;17.34;83.03;96618.63;5095644;28;19958;-76
2021/08/22 01:53:46;;;;;;;;;;;;;;;17.34;82.28;96610.69;5095609;28;19999;-76
2021/08/22 01:56:12;;;;;;;;;;;;;;;17.32;82.96;96604.84;5095361;28;20398;-75
2021/08/22 01:58:38;;;;;;;;;;;;;;;17.31;83.14;96605.91;5095954;28;20020;-76
2021/08/22 02:01:04;;;;;;;;;;;;;;;17.31;82.69;96605.91;5095658;28;20300;-75
2021/08/22 02:03:39;;;;;;;;;;;;;;;17.29;83.82;96607.22;5095064;28;19949;-76
2021/08/22 02:06:15;;;;;;;;;;;;;;;17.27;83.16;96610.13;5095461;28;20328;-76
2021/08/22 02:08:42;;;;;;;;;;;;;;;17.27;83.77;96611.97;5095415;28;20019;-76
2021/08/22 02:11:14;;;;;;;;;;;;;;;17.27;83.73;96614.63;5095286;28;19949;-76
2021/08/22 02:13:43;;;;;;;;;;;;;;;17.24;82.78;96624.69;5095148;28;19955;-77
2021/08/22 02:16:11;;;;;;;;;;;;;;;17.23;83.31;96598.44;5095204;28;19952;-78
2021/08/22 02:18:38;;;;;;;;;;;;;;;17.21;83.44;96590.72;5094713;28;20346;-76
2021/08/22 02:21:04;;;;;;;;;;;;;;;17.21;83.06;96601.31;5094928;28;19973;-76
2021/08/22 02:23:30;;;;;;;;;;;;;;;17.19;83.22;96592.84;5095609;28;19961;-77
2021/08/22 02:25:56;;;;;;;;;;;;;;;17.20;83.23;96598.97;5092881;28;19955;-77
2021/08/22 02:28:22;;;;;;;;;;;;;;;17.19;84.12;96592.84;5095311;28;19949;-76
2021/08/22 02:30:49;;;;;;;;;;;;;;;17.18;83.79;96593.91;5094957;28;19973;-76
2021/08/22 02:33:15;;;;;;;;;;;;;;;17.16;83.91;96585.41;5094851;28;19958;-77
2021/08/22 02:35:42;;;;;;;;;;;;;;;17.16;83.54;96589.94;5094552;28;19970;-77
2021/08/22 02:38:08;;;;;;;;;;;;;;;17.14;84.09;96592.81;5094699;28;20434;-77
2021/08/22 02:40:34;;;;;;;;;;;;;;;17.14;83.92;96594.69;5094959;28;19988;-77
2021/08/22 02:43:00;;;;;;;;;;;;;;;17.13;84.35;96596.50;5094713;28;20338;-77
2021/08/22 02:45:26;;;;;;;;;;;;;;;17.10;83.76;96591.72;5094608;28;20013;-76
2021/08/22 02:47:56;;;;;;;;;;;;;;;17.09;84.15;96598.06;5094616;28;19954;-77
2021/08/22 02:50:23;;;;;;;;;;;;;;;17.09;84.58;96611.31;5094360;28;19958;-77
2021/08/22 02:52:49;;;;;;;;;;;;;;;17.08;84.48;96603.66;5093870;28;19971;-77
2021/08/22 02:55:15;;;;;;;;;;;;;;;17.06;84.44;96608.41;5094700;28;19962;-77
2021/08/22 02:57:42;;;;;;;;;;;;;;;17.06;84.63;96603.09;5094461;28;20337;-77
2021/08/22 03:00:08;;;;;;;;;;;;;;;17.06;85.64;96603.09;5094555;28;19962;-77
2021/08/22 03:02:34;;;;;;;;;;;;;;;17.03;86.35;96596.47;5094251;28;19964;-79
2021/08/22 03:05:00;;;;;;;;;;;;;;;16.98;86.05;96599.06;5094132;28;20034;-77
2021/08/22 03:07:26;;;;;;;;;;;;;;;16.95;85.79;96602.25;5093555;28;19949;-76
2021/08/22 03:09:52;;;;;;;;;;;;;;;16.91;85.24;96587.91;5094420;28;19984;-76
2021/08/22 03:12:18;;;;;;;;;;;;;;;16.89;85.44;96590.81;5094586;28;19958;-77
2021/08/22 03:14:44;;;;;;;;;;;;;;;16.88;85.31;96588.41;5093755;28;19953;-77
2021/08/22 03:17:10;;;;;;;;;;;;;;;16.87;85.42;96586.81;5094150;28;20401;-78
2021/08/22 03:19:35;;;;;;;;;;;;;;;16.86;85.59;96587.84;5094044;28;19976;-77
2021/08/22 03:22:02;;;;;;;;;;;;;;;16.86;86.10;96572.75;5093893;28;20426;-77
2021/08/22 03:24:28;;;;;;;;;;;;;;;16.80;85.89;96582.53;5094026;28;19954;-77
2021/08/22 03:26:53;;;;;;;;;;;;;;;16.78;85.50;96576.66;5094383;28;20400;-77
2021/08/22 03:29:19;;;;;;;;;;;;;;;16.78;85.32;96584.59;5093653;28;20407;-78
2021/08/22 03:31:45;;;;;;;;;;;;;;;16.77;85.16;96575.06;5093781;28;20033;-78
2021/08/22 03:34:11;;;;;;;;;;;;;;;16.78;84.85;96586.47;5093181;28;20050;-78
2021/08/22 03:36:37;;;;;;;;;;;;;;;16.75;85.48;96582.44;5092841;28;20324;-77
2021/08/22 03:39:04;;;;;;;;;;;;;;;16.74;84.81;96585.38;5093518;28;19970;-77
2021/08/22 03:41:32;;;;;;;;;;;;;;;16.70;86.30;96578.97;5093442;28;19960;-78
2021/08/22 03:43:59;;;;;;;;;;;;;;;16.65;85.36;96587.66;5093755;28;19960;-77
2021/08/22 03:46:25;;;;;;;;;;;;;;;16.63;85.60;96582.66;5092872;28;19962;-77
2021/08/22 03:48:51;;;;;;;;;;;;;;;16.60;85.65;96585.00;5093074;28;19955;-78
2021/08/22 03:51:17;;;;;;;;;;;;;;;16.57;85.47;96586.31;5094026;28;19998;-77
2021/08/22 03:53:43;;;;;;;;;;;;;;;16.55;85.86;96584.97;5081491;28;19965;-78
2021/08/22 03:56:09;;;;;;;;;;;;;;;16.52;86.52;96583.59;5093738;28;19989;-77
2021/08/22 03:58:35;;;;;;;;;;;;;;;16.53;87.30;96584.41;5093529;28;20054;-77
2021/08/22 04:01:00;;;;;;;;;;;;;;;16.54;87.23;96583.34;5093994;28;20044;-78
2021/08/22 04:03:27;;;;;;;;;;;;;;;16.55;86.68;96588.41;5093873;28;19955;-78
2021/08/22 04:05:53;;;;;;;;;;;;;;;16.55;87.55;96585.75;5098036;28;19959;-77
2021/08/22 04:08:24;;;;;;;;;;;;;;;16.57;86.69;96591.59;5096321;28;20042;-77
2021/08/22 04:10:50;;;;;;;;;;;;;;;16.58;86.97;96598.47;5097717;28;19955;-78
2021/08/22 04:13:16;;;;;;;;;;;;;;;16.59;87.15;96599.28;5095780;28;19955;-78
2021/08/22 04:15:43;;;;;;;;;;;;;;;16.58;87.02;96595.81;5097500;28;20031;-77
2021/08/22 04:18:09;;;;;;;;;;;;;;;16.58;87.11;96593.19;5097070;28;19972;-78
2021/08/22 04:20:35;;;;;;;;;;;;;;;16.55;88.90;96603.50;5097443;28;19970;-78
2021/08/22 04:23:01;;;;;;;;;;;;;;;16.47;89.75;96604.75;5097567;28;19955;-78
2021/08/22 04:25:27;;;;;;;;;;;;;;;16.43;89.09;96616.88;5097942;28;20456;-78
2021/08/22 04:27:53;;;;;;;;;;;;;;;16.42;89.19;96617.91;5097104;28;19960;-78
2021/08/22 04:30:19;;;;;;;;;;;;;;;16.42;89.08;96620.56;5096964;28;19984;-78
2021/08/22 04:32:45;;;;;;;;;;;;;;;16.44;88.73;96627.22;5097260;28;19992;-78
2021/08/22 04:35:11;;;;;;;;;;;;;;;16.47;88.35;96630.41;5096928;28;19959;-78
2021/08/22 04:37:37;;;;;;;;;;;;;;;16.49;88.49;96630.97;5095937;28;20009;-77
2021/08/22 04:40:05;;;;;;;;;;;;;;;16.53;88.58;96632.84;5097108;28;19956;-78
2021/08/22 04:42:31;;;;;;;;;;;;;;;16.56;88.73;96628.91;5097143;28;19958;-79
2021/08/22 04:44:58;;;;;;;;;;;;;;;16.59;88.76;96621.25;5096757;28;19954;-78
2021/08/22 04:47:24;;;;;;;;;;;;;;;16.62;89.14;96625.25;5095403;28;20325;-78
2021/08/22 04:49:50;;;;;;;;;;;;;;;16.64;88.16;96620.50;5095449;28;19954;-78
2021/08/22 04:52:16;;;;;;;;;;;;;;;16.67;88.00;96624.50;5096797;28;19950;-78
2021/08/22 04:54:42;;;;;;;;;;;;;;;16.70;87.64;96632.75;5096703;28;19998;-78
2021/08/22 04:57:08;;;;;;;;;;;;;;;16.72;88.51;96625.34;5094986;28;19963;-78
2021/08/22 04:59:34;;;;;;;;;;;;;;;16.73;88.03;96629.56;5095389;28;20055;-78
2021/08/22 05:02:00;;;;;;;;;;;;;;;16.77;89.30;96646.56;5096712;28;19959;-78
2021/08/22 05:04:28;;;;;;;;;;;;;;;16.79;88.70;96643.66;5095889;28;20016;-78
2021/08/22 05:06:54;;;;;;;;;;;;;;;16.80;89.30;96654.03;5096640;28;19966;-78
2021/08/22 05:09:20;;;;;;;;;;;;;;;16.80;89.91;96643.44;5096182;28;20404;-78
2021/08/22 05:11:46;;;;;;;;;;;;;;;16.80;90.07;96643.44;5096616;28;19966;-78
2021/08/22 05:14:12;;;;;;;;;;;;;;;16.79;90.70;96635.72;5096018;28;20036;-78
2021/08/22 05:16:38;;;;;;;;;;;;;;;16.79;90.56;96641.00;5095499;28;19958;-78
2021/08/22 05:19:04;;;;;;;;;;;;;;;16.79;90.55;96649.75;5094643;28;20091;-78
2021/08/22 05:21:30;;;;;;;;;;;;;;;16.81;90.69;96649.53;5096516;28;19950;-78
2021/08/22 05:23:56;;;;;;;;;;;;;;;16.81;90.63;96652.97;5096328;28;20434;-78
2021/08/22 05:26:21;;;;;;;;;;;;;;;16.83;90.62;96658.81;5095485;28;19957;-78
2021/08/22 05:28:47;;;;;;;;;;;;;;;16.84;90.65;96659.66;5096669;28;20008;-78
2021/08/22 05:31:13;;;;;;;;;;;;;;;16.86;90.70;96662.81;5096070;28;19981;-78
2021/08/22 05:33:39;;;;;;;;;;;;;;;16.90;90.76;96671.84;5096327;28;19954;-78
2021/08/22 05:36:18;;;;;;;;;;;;;;;16.92;90.91;96679.56;5096130;28;19954;-78
2021/08/22 05:38:44;;;;;;;;;;;;;;;16.95;91.32;96676.41;5095266;28;19982;-78
2021/08/22 05:41:10;;;;;;;;;;;;;;;16.99;90.93;96672.22;5095624;28;19958;-78
2021/08/22 05:43:36;;;;;;;;;;;;;;;17.01;91.07;96662.97;5096384;28;19961;-78
2021/08/22 05:46:02;;;;;;;;;;;;;;;17.05;91.19;96663.25;5095874;28;20419;-78
2021/08/22 05:48:28;;;;;;;;;;;;;;;17.10;91.30;96670.44;5096067;28;20000;-78
2021/08/22 05:50:53;;;;;;;;;;;;;;;17.12;91.06;96663.81;5095637;28;19961;-78
2021/08/22 05:53:19;;;;;;;;;;;;;;;17.17;91.24;96661.19;5095404;28;20068;-78
2021/08/22 05:55:45;;;;;;;;;;;;;;;17.20;91.32;96654.63;5095605;28;19971;-78
2021/08/22 05:58:11;;;;;;;;;;;;;;;17.23;91.45;96660.19;5095575;28;20010;-77
2021/08/22 06:00:37;;;;;;;;;;;;;;;17.28;90.37;96655.97;5095728;28;20007;-78
2021/08/22 06:03:03;;;;;;;;;;;;;;;17.33;90.91;96651.50;5095539;28;19964;-77
2021/08/22 06:05:30;;;;;;;;;;;;;;;17.42;89.79;96654.47;5095731;28;19960;-79
2021/08/22 06:07:55;;;;;;;;;;;;;;;17.55;89.97;96650.56;5095324;28;19958;-77
2021/08/22 06:10:21;;;;;;;;;;;;;;;17.59;88.99;96651.66;5094835;28;20430;-78
2021/08/22 06:12:47;;;;;;;;;;;;;;;17.60;88.43;96656.69;5095281;28;19970;-77
2021/08/22 06:15:13;;;;;;;;;;;;;;;17.60;89.60;96659.34;5095235;28;20006;-77
2021/08/22 06:17:39;;;;;;;;;;;;;;;17.59;89.36;96657.75;5095717;28;20336;-77
2021/08/22 06:20:05;;;;;;;;;;;;;;;17.61;90.33;96662.78;5095158;28;19978;-77
2021/08/22 06:22:31;;;;;;;;;;;;;;;17.60;91.98;96653.25;5093769;28;19958;-78
2021/08/22 06:24:57;;;;;;;;;;;;;;;17.60;89.94;96651.41;5094428;28;20042;-78
2021/08/22 06:27:23;;;;;;;;;;;;;;;17.62;89.97;96656.44;5095135;28;19954;-77
2021/08/22 06:29:49;;;;;;;;;;;;;;;17.66;90.24;96660.19;5093556;28;19957;-78
2021/08/22 06:32:15;;;;;;;;;;;;;;;17.69;89.70;96656.22;5095400;28;19991;-77
2021/08/22 06:34:41;;;;;;;;;;;;;;;17.68;90.31;96658.06;5093379;28;20429;-77
2021/08/22 06:37:09;;;;;;;;;;;;;;;17.69;89.90;96659.66;5094764;28;19992;-78
2021/08/22 06:39:40;;;;;;;;;;;;;;;17.70;90.28;96649.84;5094566;28;20359;-77
2021/08/22 06:42:06;;;;;;;;;;;;;;;17.71;90.08;96654.09;5094682;28;19958;-77
2021/08/22 06:44:33;;;;;;;;;;;;;;;17.74;89.68;96645.63;5093912;28;19965;-77
2021/08/22 06:46:59;;;;;;;;;;;;;;;17.74;91.40;96651.72;5094574;28;19955;-78
2021/08/22 06:49:25;;;;;;;;;;;;;;;17.74;91.61;96651.72;5094007;28;19956;-77
2021/08/22 06:51:51;;;;;;;;;;;;;;;17.75;91.32;96650.66;5093884;28;19959;-78
2021/08/22 06:54:17;;;;;;;;;;;;;;;17.77;92.45;96659.16;5093523;28;19957;-77
2021/08/22 06:56:43;;;;;;;;;;;;;;;17.72;90.51;96664.44;5094947;28;20055;-77
2021/08/22 06:59:09;;;;;;;;;;;;;;;17.72;91.73;96656.47;5092889;28;20433;-77
2021/08/22 07:01:36;;;;;;;;;;;;;;;17.74;92.11;96661.53;5094848;28;19968;-77
2021/08/22 07:04:02;;;;;;;;;;;;;;;17.75;91.41;96657.84;5093462;28;19964;-77
2021/08/22 07:06:28;;;;;;;;;;;;;;;17.74;90.50;96659.66;5092245;28;19950;-77
2021/08/22 07:08:56;;;;;;;;;;;;;;;17.79;90.84;96661.56;5094603;28;19964;-77
2021/08/22 07:11:22;;;;;;;;;;;;;;;17.83;91.49;96658.16;5094270;28;19966;-77
2021/08/22 07:13:47;;;;;;;;;;;;;;;17.91;91.81;96658.72;5094372;28;19980;-77
2021/08/22 07:16:13;;;;;;;;;;;;;;;17.97;91.59;96661.13;5093953;28;19945;-77
2021/08/22 07:18:40;;;;;;;;;;;;;;;18.04;91.43;96663.56;5093753;28;20402;-77
2021/08/22 07:21:07;;;;;;;;;;;;;;;18.10;89.79;96675.78;5093905;28;19964;-77
2021/08/22 07:23:33;;;;;;;;;;;;;;;18.14;89.68;96666.25;5093397;28;19956;-77
2021/08/22 07:25:59;;;;;;;;;;;;;;;18.21;89.06;96666.00;5093680;28;19961;-77
2021/08/22 07:28:25;;;;;;;;;;;;;;;18.25;89.02;96662.56;5093916;28;19957;-77
2021/08/22 07:30:51;;;;;;;;;;;;;;;18.34;89.25;96667.38;5093806;28;20035;-77
2021/08/22 07:33:17;;;;;;;;;;;;;;;18.40;88.23;96666.31;5093797;28;20057;-77
2021/08/22 07:35:43;;;;;;;;;;;;;;;18.44;88.51;96665.53;5093429;28;20320;-77
2021/08/22 07:38:09;;;;;;;;;;;;;;;18.51;88.82;96667.13;5093961;28;19962;-77
2021/08/22 07:40:35;;;;;;;;;;;;;;;18.56;88.41;96670.59;5093722;28;19979;-77
2021/08/22 07:43:01;;;;;;;;;;;;;;;18.58;86.76;96673.78;5093822;28;19963;-76
2021/08/22 07:45:26;;;;;;;;;;;;;;;18.59;87.91;96672.72;5091909;28;19963;-77
2021/08/22 07:47:52;;;;;;;;;;;;;;;18.59;87.03;96674.59;5093898;28;19957;-77
2021/08/22 07:50:18;;;;;;;;;;;;;;;18.61;86.80;96675.13;5093432;28;19961;-77
2021/08/22 07:52:44;;;;;;;;;;;;;;;18.65;87.17;96669.00;5093790;28;20007;-76
2021/08/22 07:55:11;;;;;;;;;;;;;;;18.71;87.27;96664.50;5092582;28;19958;-77
2021/08/22 07:57:38;;;;;;;;;;;;;;;18.79;85.89;96673.81;5092417;28;19960;-77
2021/08/22 08:00:04;;;;;;;;;;;;;;;18.87;87.27;96673.31;5093377;28;19981;-76
2021/08/22 08:02:30;;;;;;;;;;;;;;;18.90;85.68;96670.13;5093911;28;19957;-76
2021/08/22 08:04:55;;;;;;;;;;;;;;;18.95;86.65;96664.00;5093423;28;20052;-77
2021/08/22 08:07:22;;;;;;;;;;;;;;;19.10;86.51;96657.91;5093337;28;20322;-77
2021/08/22 08:09:47;;;;;;;;;;;;;;;19.21;85.31;96665.59;5093492;28;19957;-76
2021/08/22 08:12:14;;;;;;;;;;;;;;;19.33;86.63;96677.81;5093719;28;20036;-77
2021/08/22 08:14:39;;;;;;;;;;;;;;;19.34;82.91;96677.56;5093531;28;19959;-77
2021/08/22 08:17:06;;;;;;;;;;;;;;;19.30;82.70;96681.00;5093424;28;20409;-76
2021/08/22 08:19:32;;;;;;;;;;;;;;;19.24;84.06;96681.00;5093452;28;19963;-77
2021/08/22 08:21:58;;;;;;;;;;;;;;;19.17;81.97;96675.19;5092902;28;20310;-76
2021/08/22 08:24:24;;;;;;;;;;;;;;;19.06;82.20;96679.69;5093424;28;19958;-77
2021/08/22 08:26:50;;;;;;;;;;;;;;;18.95;83.87;96677.31;5093506;28;19958;-77
2021/08/22 08:29:16;;;;;;;;;;;;;;;18.90;83.80;96682.59;5093149;28;19950;-77
2021/08/22 08:31:42;;;;;;;;;;;;;;;18.88;84.13;96679.41;5093111;28;20016;-77
2021/08/22 08:34:08;;;;;;;;;;;;;;;18.85;83.67;96678.88;5092531;28;19971;-77
2021/08/22 08:36:34;;;;;;;;;;;;;;;18.88;85.66;96679.41;5092729;28;19961;-77
2021/08/22 08:38:59;;;;;;;;;;;;;;;18.97;85.62;96683.94;5093260;28;19976;-76
2021/08/22 08:41:25;;;;;;;;;;;;;;;19.05;84.61;96675.44;5093284;28;19957;-76
2021/08/22 08:43:53;;;;;;;;;;;;;;;19.11;84.50;96681.56;5093292;28;19961;-77
2021/08/22 08:46:22;;;;;;;;;;;;;;;19.21;86.24;96680.75;5093115;28;19946;-77
2021/08/22 08:49:08;;;;;;;;;;;;;;;19.27;85.45;96685.00;5093417;28;19960;-77
2021/08/22 08:52:00;;;;;;;;;;;;;;;19.29;82.57;96688.19;5078282;28;20423;-77
2021/08/22 08:54:32;;;;;;;;;;;;;;;19.27;84.93;96688.44;5080256;28;19953;-76
2021/08/22 08:57:01;;;;;;;;;;;;;;;19.25;83.34;96698.53;5096095;28;19962;-76
2021/08/22 08:59:27;;;;;;;;;;;;;;;19.24;85.66;96694.31;5096732;28;19972;-77
2021/08/22 09:01:55;;;;;;;;;;;;;;;19.24;85.27;96704.16;5096277;28;19966;-76
2021/08/22 09:04:25;;;;;;;;;;;;;;;19.24;82.98;96704.16;5096564;28;19963;-76
2021/08/22 09:07:10;;;;;;;;;;;;;;;19.22;82.65;96699.09;5096672;28;19947;-78
2021/08/22 09:09:54;;;;;;;;;;;;;;;19.19;82.82;96691.66;5096300;28;19951;-76
2021/08/22 09:12:29;;;;;;;;;;;;;;;19.20;83.15;96698.56;5096607;28;19956;-76
2021/08/22 09:15:14;;;;;;;;;;;;;;;19.20;81.21;96682.59;5095939;28;19955;-77
2021/08/22 09:17:58;;;;;;;;;;;;;;;19.25;83.59;96695.09;5096361;28;20013;-77
2021/08/22 09:20:43;;;;;;;;;;;;;;;19.33;84.04;96694.56;5096238;28;19968;-76
2021/08/22 09:23:09;;;;;;;;;;;;;;;19.42;84.08;96690.31;5096283;28;19954;-77
2021/08/22 09:25:35;;;;;;;;;;;;;;;19.48;83.65;96686.56;5096195;28;19965;-77
2021/08/22 09:28:07;;;;;;;;;;;;;;;19.57;83.58;96689.50;5096150;28;19956;-77
2021/08/22 09:30:36;;;;;;;;;;;;;;;19.64;81.10;96689.19;5095599;28;19993;-77
2021/08/22 09:33:21;;;;;;;;;;;;;;;19.71;81.12;96692.41;5096074;28;19963;-76
2021/08/22 09:36:05;;;;;;;;;;;;;;;19.78;81.71;96692.09;5096160;28;19958;-76
2021/08/22 09:38:34;;;;;;;;;;;;;;;19.82;79.46;96693.16;5095949;28;19948;-77
2021/08/22 09:41:19;;;;;;;;;;;;;;;19.83;79.66;96692.09;5096196;28;19982;-76
2021/08/22 09:44:12;;;;;;;;;;;;;;;19.90;81.35;96678.50;5095943;28;19953;-76
2021/08/22 09:46:57;;;;;;;;;;;;;;;20.01;81.99;96680.88;5077384;28;19962;-76
2021/08/22 09:49:29;;;;;;;;;;;;;;;20.05;79.59;96678.44;5095888;28;19953;-77
2021/08/22 09:52:07;;;;;;;;;;;;;;;20.06;79.36;96680.84;5095679;28;19951;-77
2021/08/22 09:54:33;;;;;;;;;;;;;;;20.03;78.01;96681.38;5095716;28;19963;-77
2021/08/22 09:57:17;;;;;;;;;;;;;;;20.01;79.14;96682.72;5095859;28;19965;-77
2021/08/22 10:00:02;;;;;;;;;;;;;;;19.97;79.95;96671.84;5095371;28;20000;-77
2021/08/22 10:02:37;;;;;;;;;;;;;;;19.96;79.42;96682.75;5095471;28;19967;-77
2021/08/22 10:05:21;;;;;;;;;;;;;;;19.92;77.87;96681.69;5095057;28;19949;-76
2021/08/22 10:08:16;;;;;;;;;;;;;;;19.84;74.81;96678.53;5095389;28;19957;-76
2021/08/22 10:10:44;;;;;;;;;;;;;;;19.78;77.61;96690.25;5040874;28;19962;-76
2021/08/22 10:13:10;;;;;;;;;;;;;;;19.75;77.81;96680.16;5095095;28;19954;-76
2021/08/22 10:15:36;;;;;;;;;;;;;;;19.74;78.85;96694.53;5095418;28;20005;-77
2021/08/22 10:18:02;;;;;;;;;;;;;;;19.73;79.80;96687.59;5095265;28;19961;-76
2021/08/22 10:20:41;;;;;;;;;;;;;;;19.71;80.05;96686.28;5095210;28;19992;-76
2021/08/22 10:23:27;;;;;;;;;;;;;;;19.72;80.27;96691.34;5094978;28;19948;-76
2021/08/22 10:25:55;;;;;;;;;;;;;;;19.73;83.03;96687.59;5094917;28;19952;-77
2021/08/22 10:28:39;;;;;;;;;;;;;;;19.76;83.08;96681.75;5095063;28;19959;-76
2021/08/22 10:31:05;;;;;;;;;;;;;;;19.82;82.66;96669.19;5095143;28;19987;-77
2021/08/22 10:33:31;;;;;;;;;;;;;;;19.87;82.64;96669.19;5094576;28;19963;-76
2021/08/22 10:36:26;;;;;;;;;;;;;;;19.92;82.63;96663.84;5094789;28;19959;-76
2021/08/22 10:39:12;;;;;;;;;;;;;;;19.99;83.02;96666.22;5094690;28;20413;-77
2021/08/22 10:41:37;;;;;;;;;;;;;;;20.00;80.78;96659.84;5094915;28;20335;-77
2021/08/22 10:44:23;;;;;;;;;;;;;;;20.00;80.00;96657.19;5095332;28;19958;-76
2021/08/22 10:46:49;;;;;;;;;;;;;;;19.99;79.57;96643.06;5094570;28;19956;-76
2021/08/22 10:49:15;;;;;;;;;;;;;;;20.00;78.95;96651.84;5094538;28;19962;-77
2021/08/22 10:51:41;;;;;;;;;;;;;;;20.02;80.09;96655.03;5094887;28;19965;-76
2021/08/22 10:54:17;;;;;;;;;;;;;;;20.04;77.92;96656.34;5094849;28;19965;-76
2021/08/22 10:56:43;;;;;;;;;;;;;;;20.05;79.72;96660.63;5092768;28;19959;-76
2021/08/22 10:59:09;;;;;;;;;;;;;;;20.08;80.58;96660.06;5094481;28;19978;-77
2021/08/22 11:01:36;;;;;;;;;;;;;;;20.13;79.35;96656.56;5094384;28;19964;-76
2021/08/22 11:04:18;;;;;;;;;;;;;;;20.17;79.06;96662.16;5094281;28;20422;-76
2021/08/22 11:06:54;;;;;;;;;;;;;;;20.18;79.71;96653.06;5082902;28;19984;-76
2021/08/22 11:09:36;;;;;;;;;;;;;;;20.19;79.30;96662.69;5082173;28;19947;-76
2021/08/22 11:12:03;;;;;;;;;;;;;;;20.20;79.57;96669.56;5094127;28;19957;-77
2021/08/22 11:14:30;;;;;;;;;;;;;;;20.20;77.77;96664.25;5093739;28;19958;-76
2021/08/22 11:16:57;;;;;;;;;;;;;;;20.18;76.67;96669.06;5094316;28;19957;-76
2021/08/22 11:19:23;;;;;;;;;;;;;;;20.19;76.62;96665.34;5094519;28;19970;-76
2021/08/22 11:21:50;;;;;;;;;;;;;;;20.17;77.11;96667.47;5094137;28;19966;-77
2021/08/22 11:24:16;;;;;;;;;;;;;;;20.16;75.56;96668.53;5093981;28;19950;-76
2021/08/22 11:26:42;;;;;;;;;;;;;;;20.14;77.23;96674.16;5094134;28;19961;-77
2021/08/22 11:29:08;;;;;;;;;;;;;;;20.11;77.33;96668.56;5093866;28;20025;-76
2021/08/22 11:31:35;;;;;;;;;;;;;;;20.07;77.18;96663.81;5094327;28;19996;-76
2021/08/22 11:34:11;;;;;;;;;;;;;;;20.03;77.42;96664.59;5092971;28;20272;-76
2021/08/22 11:36:37;;;;;;;;;;;;;;;19.97;77.83;96660.38;5093929;28;20410;-76
2021/08/22 11:39:09;;;;;;;;;;;;;;;19.96;79.13;96664.09;5093864;28;19958;-76
2021/08/22 11:41:36;;;;;;;;;;;;;;;19.94;77.36;96656.38;5093631;28;19949;-76
2021/08/22 11:44:02;;;;;;;;;;;;;;;19.93;78.99;96656.66;5093358;28;20408;-75
2021/08/22 11:46:29;;;;;;;;;;;;;;;19.90;80.56;96663.31;5093511;28;19962;-75
2021/08/22 11:48:56;;;;;;;;;;;;;;;19.87;80.27;96659.34;5093878;28;19967;-76
2021/08/22 11:51:22;;;;;;;;;;;;;;;19.86;81.07;96654.28;5093913;28;20422;-76
2021/08/22 11:53:52;;;;;;;;;;;;;;;19.82;81.53;96655.91;5093675;28;19965;-77
2021/08/22 11:56:22;;;;;;;;;;;;;;;19.80;81.53;96653.53;5093531;28;20315;-76
2021/08/22 11:58:48;;;;;;;;;;;;;;;19.78;82.45;96655.66;5093779;28;20315;-77
2021/08/22 12:01:18;;;;;;;;;;;;;;;19.75;80.52;96652.75;5093831;28;19972;-77
2021/08/22 12:03:56;;;;;;;;;;;;;;;19.72;80.89;96647.94;5093680;28;19960;-77
2021/08/22 12:06:22;;;;;;;;;;;;;;;19.71;82.24;96641.03;5093677;28;20317;-77
2021/08/22 12:08:48;;;;;;;;;;;;;;;19.71;82.33;96647.16;5093365;28;19986;-77
2021/08/22 12:11:17;;;;;;;;;;;;;;;19.67;81.37;96641.56;5093847;28;19956;-75
2021/08/22 12:13:44;;;;;;;;;;;;;;;19.66;83.06;96652.47;5093494;28;19959;-75
2021/08/22 12:16:28;;;;;;;;;;;;;;;19.60;82.85;96659.66;5093487;28;20446;-76
2021/08/22 12:18:55;;;;;;;;;;;;;;;19.47;81.46;96670.88;5092858;28;19973;-75
2021/08/22 12:21:22;;;;;;;;;;;;;;;19.41;82.55;96671.94;5093509;28;19988;-75
2021/08/22 12:23:49;;;;;;;;;;;;;;;19.31;82.10;96661.34;5093914;28;20414;-74
2021/08/22 12:26:18;;;;;;;;;;;;;;;19.27;81.81;96666.38;5096696;28;19957;-75
2021/08/22 12:28:44;;;;;;;;;;;;;;;19.19;80.63;96666.91;5097657;28;20401;-76
2021/08/22 12:31:11;;;;;;;;;;;;;;;19.11;81.96;96668.28;5097484;28;19991;-75
2021/08/22 12:33:38;;;;;;;;;;;;;;;19.08;81.42;96663.47;5097399;28;19969;-75
2021/08/22 12:36:04;;;;;;;;;;;;;;;19.02;81.73;96662.69;5097230;28;20021;-76
2021/08/22 12:38:37;;;;;;;;;;;;;;;18.98;82.34;96666.13;5097706;28;20442;-76
2021/08/22 12:41:22;;;;;;;;;;;;;;;18.97;83.13;96653.91;5097072;28;20452;-76
2021/08/22 12:43:48;;;;;;;;;;;;;;;18.98;84.11;96666.94;5097120;28;20400;-77
2021/08/22 12:46:14;;;;;;;;;;;;;;;19.02;83.64;96653.91;5096949;28;19971;-76
2021/08/22 12:48:41;;;;;;;;;;;;;;;19.08;83.56;96655.50;5097113;28;19960;-75
2021/08/22 12:51:08;;;;;;;;;;;;;;;19.15;85.02;96655.22;5097083;28;19960;-75
2021/08/22 12:53:34;;;;;;;;;;;;;;;19.16;83.55;96662.94;5096201;28;19970;-74